Time;durP1;ratioP1;P1;durP2;ratioP2;P2;SDS_P1;SDS_P2;PMS_P1;PMS_P2;Temp;Humidity;BMP_temperature;BMP_pressure;BME280_temperature;BME280_humidity;BME280_pressure;Samples;Min_cycle;Max_cycle;Signal;HPM_P1;HPM_P2
2023/04/26 00:00:46;;;;;;;21.60;8.00;;;;;;;2.49;70.87;99920.88;129416;1258;114849;-69
2023/04/26 00:03:49;;;;;;;17.00;7.80;;;;;;;2.46;70.92;99924.30;129440;1280;128069;-69
2023/04/26 00:06:52;;;;;;;24.40;9.90;;;;;;;2.43;71.03;99921.02;129625;1261;114737;-65
2023/04/26 00:09:54;;;;;;;18.50;8.80;;;;;;;2.40;70.97;99925.98;129417;1257;114774;-60
2023/04/26 00:12:56;;;;;;;23.50;9.40;;;;;;;2.37;70.96;99923.08;129622;1262;115388;-60
2023/04/26 00:15:58;;;;;;;22.40;7.90;;;;;;;2.36;70.94;99925.92;129597;1261;114910;-60
2023/04/26 00:19:01;;;;;;;16.00;7.70;;;;;;;2.33;71.04;99924.39;129779;1261;114750;-60
2023/04/26 00:22:04;;;;;;;25.70;8.80;;;;;;;2.31;71.13;99918.46;129824;1257;114804;-62
2023/04/26 00:25:07;;;;;;;24.70;8.80;;;;;;;2.28;71.28;99925.02;129485;1258;114882;-61
2023/04/26 00:28:12;;;;;;;20.40;8.20;;;;;;;2.26;71.28;99932.11;129741;1261;115152;-61
2023/04/26 00:31:15;;;;;;;19.00;8.00;;;;;;;2.25;71.16;99935.14;129556;1259;114726;-64
2023/04/26 00:34:17;;;;;;;15.70;8.10;;;;;;;2.23;71.48;99939.77;129525;1261;114739;-59
2023/04/26 00:37:20;;;;;;;17.60;7.60;;;;;;;2.20;71.49;99936.84;129598;1261;115214;-59
2023/04/26 00:40:23;;;;;;;18.60;8.60;;;;;;;2.18;71.51;99943.55;129480;1261;114767;-59
2023/04/26 00:43:25;;;;;;;19.50;7.60;;;;;;;2.17;71.52;99941.11;129616;1261;114759;-59
2023/04/26 00:46:29;;;;;;;18.20;8.20;;;;;;;2.14;71.24;99941.36;129542;1280;115181;-59
2023/04/26 00:49:32;;;;;;;13.10;5.90;;;;;;;2.12;71.32;99940.51;129455;1257;114888;-61
2023/04/26 00:52:34;;;;;;;20.50;7.90;;;;;;;2.09;71.61;99944.64;129801;1271;114751;-62
2023/04/26 00:55:37;;;;;;;18.20;7.80;;;;;;;2.05;71.48;99944.55;129565;1264;114822;-61
2023/04/26 00:58:39;;;;;;;17.10;7.60;;;;;;;2.02;71.54;99952.70;129512;1272;114851;-61
2023/04/26 01:01:41;;;;;;;17.30;7.60;;;;;;;1.98;71.34;99948.91;129336;1258;127630;-61
2023/04/26 01:04:44;;;;;;;17.30;7.50;;;;;;;1.95;71.48;99953.01;129661;1258;114784;-60
2023/04/26 01:07:47;;;;;;;22.80;8.40;;;;;;;1.91;71.54;99955.19;129540;1261;115381;-61
2023/04/26 01:10:51;;;;;;;28.40;7.30;;;;;;;1.88;71.54;99958.79;129667;1258;115232;-61
2023/04/26 01:13:53;;;;;;;18.80;8.40;;;;;;;1.85;71.84;99957.61;129551;1273;115315;-62
2023/04/26 01:16:56;;;;;;;18.40;8.80;;;;;;;1.81;71.70;99962.08;129604;1261;114743;-61
2023/04/26 01:19:58;;;;;;;20.60;9.00;;;;;;;1.78;72.05;99965.13;129727;1258;114788;-60
2023/04/26 01:23:01;;;;;;;18.20;8.50;;;;;;;1.75;72.10;99966.93;129302;1261;197620;-60
2023/04/26 01:26:03;;;;;;;19.00;8.20;;;;;;;1.72;72.01;99968.60;129664;1257;114733;-60
2023/04/26 01:29:15;;;;;;;22.00;8.30;;;;;;;1.68;72.14;99970.59;129430;1265;114733;-60
2023/04/26 01:32:18;;;;;;;21.80;8.60;;;;;;;1.65;72.19;99972.95;129501;1258;116352;-59
2023/04/26 01:35:20;;;;;;;25.80;8.10;;;;;;;1.63;72.36;99975.63;129739;1261;114722;-60
2023/04/26 01:38:23;;;;;;;20.50;9.00;;;;;;;1.60;72.53;99976.36;129535;1263;114792;-60
2023/04/26 01:41:26;;;;;;;19.10;7.60;;;;;;;1.59;72.48;99980.09;129525;1263;114663;-60
2023/04/26 01:44:28;;;;;;;15.90;8.10;;;;;;;1.57;72.33;99981.71;129479;1265;115322;-59
2023/04/26 01:47:30;;;;;;;13.40;7.20;;;;;;;1.56;72.65;99982.79;129572;1261;114723;-61
2023/04/26 01:50:33;;;;;;;18.40;7.50;;;;;;;1.54;72.53;99981.23;129502;1261;114801;-60
2023/04/26 01:53:35;;;;;;;24.50;9.00;;;;;;;1.53;72.87;99986.00;129537;1258;114850;-62
2023/04/26 01:56:37;;;;;;;28.90;8.40;;;;;;;1.52;73.01;99989.02;129270;1259;115343;-60
2023/04/26 01:59:39;;;;;;;26.50;8.00;;;;;;;1.51;72.91;99989.72;129609;1274;114710;-60
2023/04/26 02:02:41;;;;;;;11.80;7.00;;;;;;;1.50;73.14;99993.61;129567;1257;115358;-59
2023/04/26 02:05:44;;;;;;;23.10;8.10;;;;;;;1.49;73.02;99987.30;129731;1275;115492;-59
2023/04/26 02:08:46;;;;;;;16.50;7.90;;;;;;;1.48;72.76;99989.96;129602;1263;114762;-59
2023/04/26 02:11:48;;;;;;;15.40;7.60;;;;;;;1.46;72.58;99987.02;129709;1273;114811;-59
2023/04/26 02:14:50;;;;;;;18.50;7.00;;;;;;;1.44;72.75;99989.85;129595;1274;114906;-60
2023/04/26 02:17:54;;;;;;;20.20;8.50;;;;;;;1.43;72.95;99989.88;129743;1261;115194;-60
2023/04/26 02:20:56;;;;;;;15.10;7.00;;;;;;;1.41;72.80;99987.26;129445;1261;128822;-59
2023/04/26 02:23:58;;;;;;;21.50;8.70;;;;;;;1.40;72.98;99988.52;129394;1257;115364;-60
2023/04/26 02:27:02;;;;;;;19.50;8.90;;;;;;;1.39;72.83;99991.89;129519;1261;115091;-60
2023/04/26 02:30:05;;;;;;;19.00;7.70;;;;;;;1.35;73.00;99991.23;129560;1258;114832;-60
2023/04/26 02:33:08;;;;;;;21.40;7.40;;;;;;;1.33;73.03;99989.15;129915;1261;114690;-60
2023/04/26 02:36:10;;;;;;;17.20;6.80;;;;;;;1.32;73.17;99987.42;129729;1278;114742;-60
2023/04/26 02:39:13;;;;;;;20.90;6.50;;;;;;;1.30;73.14;99987.64;129585;1274;115028;-61
2023/04/26 02:42:18;;;;;;;20.60;7.50;;;;;;;1.28;73.21;99989.25;129506;1264;114710;-60
2023/04/26 02:45:20;;;;;;;15.60;6.10;;;;;;;1.26;73.24;99992.09;129576;1258;114829;-60
2023/04/26 02:48:22;;;;;;;20.00;7.10;;;;;;;1.24;73.47;99989.83;129473;1261;115178;-60
2023/04/26 02:51:24;;;;;;;15.10;6.60;;;;;;;1.21;73.17;99989.70;129604;1264;114769;-60
2023/04/26 02:54:26;;;;;;;17.90;7.00;;;;;;;1.18;73.11;99983.60;129477;1258;114693;-59
2023/04/26 02:57:29;;;;;;;13.00;6.80;;;;;;;1.16;73.68;99988.90;129592;1258;114704;-64
2023/04/26 03:00:32;;;;;;;13.10;6.60;;;;;;;1.15;73.20;99987.00;129667;1261;114801;-59
2023/04/26 03:03:36;;;;;;;17.30;6.70;;;;;;;1.14;73.45;99990.87;129899;1261;115437;-59
2023/04/26 03:06:38;;;;;;;10.80;6.70;;;;;;;1.12;73.66;99993.02;129890;1261;114948;-64
2023/04/26 03:09:40;;;;;;;13.70;6.20;;;;;;;1.11;73.74;99996.55;129775;1257;114726;-63
2023/04/26 03:12:42;;;;;;;10.20;6.40;;;;;;;1.10;73.94;100005.00;129378;1262;114730;-60
2023/04/26 03:15:45;;;;;;;12.60;6.70;;;;;;;1.08;73.71;100009.26;129808;1261;114714;-61
2023/04/26 03:18:47;;;;;;;15.50;6.90;;;;;;;1.06;73.93;100009.12;129769;1257;114743;-60
2023/04/26 03:21:49;;;;;;;17.90;6.60;;;;;;;1.04;73.80;100006.50;129697;1280;114727;-62
2023/04/26 03:24:52;;;;;;;19.40;7.50;;;;;;;1.03;73.97;100008.98;129548;1280;115195;-63
2023/04/26 03:27:55;;;;;;;14.40;7.50;;;;;;;1.03;74.35;100006.00;129542;1261;114775;-62
2023/04/26 03:31:00;;;;;;;16.00;7.20;;;;;;;1.02;74.29;100015.15;129558;1264;116407;-61
2023/04/26 03:34:03;;;;;;;17.10;6.50;;;;;;;1.01;74.38;100023.42;129565;1257;114754;-71
2023/04/26 03:37:06;;;;;;;20.00;7.50;;;;;;;1.02;74.31;100029.05;129666;1280;126578;-70
2023/04/26 03:40:09;;;;;;;19.00;6.80;;;;;;;1.02;74.32;100027.99;129488;1277;115512;-70
2023/04/26 03:43:11;;;;;;;18.00;6.90;;;;;;;1.04;74.60;100027.27;129449;1261;115236;-68
2023/04/26 03:46:13;;;;;;;14.80;6.80;;;;;;;1.08;74.53;100031.23;129620;1261;115223;-69
2023/04/26 03:49:18;;;;;;;15.30;7.30;;;;;;;1.11;74.61;100034.01;129492;1257;114646;-72
2023/04/26 03:52:20;;;;;;;17.90;6.50;;;;;;;1.16;74.73;100040.27;129704;1280;114727;-72
2023/04/26 03:55:23;;;;;;;12.50;6.50;;;;;;;1.20;74.85;100042.84;129635;1257;114847;-71
2023/04/26 03:58:25;;;;;;;13.20;7.30;;;;;;;1.26;74.84;100042.75;129309;1264;127826;-63
2023/04/26 04:01:28;;;;;;;12.40;6.30;;;;;;;1.33;74.84;100047.21;129558;1280;114816;-70
2023/04/26 04:04:30;;;;;;;19.00;7.80;;;;;;;1.40;74.74;100046.77;129542;1276;114828;-71
2023/04/26 04:07:33;;;;;;;14.40;6.60;;;;;;;1.47;74.85;100045.93;129559;1261;115359;-71
2023/04/26 04:10:36;;;;;;;17.40;7.80;;;;;;;1.54;74.83;100048.11;129572;1263;115178;-69
2023/04/26 04:13:39;;;;;;;15.90;7.10;;;;;;;1.61;75.28;100051.34;129457;1264;114798;-72
2023/04/26 04:16:41;;;;;;;20.50;7.70;;;;;;;1.71;75.15;100052.06;129589;1274;114728;-68
2023/04/26 04:19:44;;;;;;;16.80;7.90;;;;;;;1.82;75.20;100054.16;129552;1263;114788;-70
2023/04/26 04:22:46;;;;;;;16.60;6.80;;;;;;;1.97;75.32;100056.35;129846;1261;115287;-71
2023/04/26 04:25:50;;;;;;;16.40;6.90;;;;;;;2.15;75.67;100057.27;129618;1258;114896;-71
2023/04/26 04:28:54;;;;;;;15.70;6.30;;;;;;;2.35;75.48;100064.63;129452;1261;116403;-72
2023/04/26 04:31:56;;;;;;;12.80;6.10;;;;;;;2.55;75.67;100067.94;129591;1280;115043;-70
2023/04/26 04:34:59;;;;;;;11.50;5.80;;;;;;;2.73;75.43;100065.09;129592;1274;115051;-71
2023/04/26 04:38:02;;;;;;;14.20;6.00;;;;;;;2.89;75.28;100068.98;129653;1258;114730;-69
2023/04/26 04:41:04;;;;;;;13.30;5.00;;;;;;;3.04;75.02;100072.55;129686;1261;115397;-71
2023/04/26 04:44:06;;;;;;;14.00;6.00;;;;;;;3.18;75.05;100076.47;129563;1259;114718;-72
2023/04/26 04:47:08;;;;;;;10.80;4.40;;;;;;;3.32;74.94;100076.50;129457;1257;114708;-67
2023/04/26 04:50:11;;;;;;;11.20;5.00;;;;;;;3.49;74.91;100078.92;129464;1261;114724;-71
2023/04/26 04:53:13;;;;;;;10.40;4.40;;;;;;;3.69;74.84;100080.56;129512;1257;114737;-74
2023/04/26 04:56:17;;;;;;;11.00;4.10;;;;;;;3.98;74.71;100082.14;129569;1280;128396;-71
2023/04/26 04:59:19;;;;;;;11.50;3.50;;;;;;;4.33;74.61;100079.77;129725;1261;116380;-69
2023/04/26 05:02:21;;;;;;;5.30;3.60;;;;;;;4.83;74.03;100078.73;129882;1261;114712;-69
2023/04/26 05:05:24;;;;;;;8.80;3.80;;;;;;;5.02;73.29;100080.64;129524;1258;115392;-72
2023/04/26 05:08:26;;;;;;;7.10;3.80;;;;;;;5.17;72.80;100083.02;129567;1257;114702;-70
2023/04/26 05:11:29;;;;;;;10.00;4.50;;;;;;;5.40;72.73;100086.55;129324;1267;114929;-70
2023/04/26 05:14:31;;;;;;;10.50;4.10;;;;;;;5.85;72.74;100086.35;129468;1280;114887;-71
2023/04/26 05:17:34;;;;;;;11.50;3.60;;;;;;;6.50;72.87;100086.42;129430;1280;114781;-69
2023/04/26 05:20:36;;;;;;;7.50;3.20;;;;;;;7.15;72.04;100082.41;129502;1264;114723;-73
2023/04/26 05:23:38;;;;;;;9.30;3.30;;;;;;;7.66;71.45;100082.71;129454;1280;114880;-73
2023/04/26 05:26:41;;;;;;;6.40;3.70;;;;;;;8.05;70.24;100085.20;129516;1280;114784;-73
2023/04/26 05:29:43;;;;;;;11.80;2.70;;;;;;;8.31;69.56;100086.73;129456;1257;114795;-72
2023/04/26 05:32:46;;;;;;;9.40;2.10;;;;;;;8.53;68.82;100088.84;129468;1261;114840;-73
2023/04/26 05:35:48;;;;;;;12.80;2.60;;;;;;;8.66;68.51;100086.84;129483;1276;114794;-73
2023/04/26 05:38:50;;;;;;;11.80;2.60;;;;;;;8.73;67.60;100091.34;129598;1258;114800;-73
2023/04/26 05:41:53;;;;;;;7.90;2.50;;;;;;;8.64;67.22;100089.95;129640;1261;115169;-73
2023/04/26 05:44:57;;;;;;;13.80;2.60;;;;;;;8.59;67.26;100094.45;129410;1258;115570;-72
2023/04/26 05:48:00;;;;;;;10.70;3.00;;;;;;;8.53;66.44;100095.45;129527;1261;115057;-71
2023/04/26 05:51:02;;;;;;;5.40;2.30;;;;;;;8.50;66.37;100096.80;129586;1261;114708;-74
2023/04/26 05:54:04;;;;;;;9.40;2.90;;;;;;;8.64;66.15;100095.98;129555;1261;114752;-69
2023/04/26 05:57:07;;;;;;;7.40;2.60;;;;;;;9.01;66.35;100095.07;129556;1259;114766;-75
2023/04/26 06:00:10;;;;;;;8.30;2.40;;;;;;;9.43;65.78;100096.46;129516;1280;115359;-72
2023/04/26 06:03:13;;;;;;;10.80;2.40;;;;;;;9.93;65.40;100101.36;129385;1261;114752;-73
2023/04/26 06:06:15;;;;;;;10.20;2.30;;;;;;;10.33;64.71;100106.84;129497;1261;115161;-72
2023/04/26 06:09:17;;;;;;;10.00;2.20;;;;;;;10.75;64.19;100104.47;129402;1264;115100;-67
2023/04/26 06:12:20;;;;;;;9.70;2.10;;;;;;;11.14;63.43;100102.04;129308;1266;114868;-74
2023/04/26 06:15:22;;;;;;;10.90;2.30;;;;;;;11.52;63.18;100100.96;129323;1273;114776;-73
2023/04/26 06:18:24;;;;;;;14.10;2.50;;;;;;;11.97;62.43;100106.69;129566;1278;114846;-74
2023/04/26 06:21:26;;;;;;;10.80;2.70;;;;;;;12.41;61.76;100110.57;129495;1262;115159;-73
2023/04/26 06:24:29;;;;;;;7.30;2.20;;;;;;;12.73;61.24;100110.02;129459;1264;114836;-74
2023/04/26 06:27:32;;;;;;;10.70;2.20;;;;;;;12.93;60.51;100110.41;129433;1258;114800;-74
2023/04/26 06:30:34;;;;;;;9.30;2.50;;;;;;;13.00;59.59;100112.50;129600;1258;114731;-73
2023/04/26 06:33:36;;;;;;;6.40;2.30;;;;;;;13.18;59.48;100109.40;129130;1264;114734;-72
2023/04/26 06:36:38;;;;;;;5.80;2.00;;;;;;;13.45;58.77;100110.74;129441;1261;114816;-73
2023/04/26 06:39:41;;;;;;;8.40;2.60;;;;;;;13.54;58.19;100112.34;129479;1281;114748;-72
2023/04/26 06:42:43;;;;;;;9.60;2.30;;;;;;;13.68;57.93;100113.77;129320;1263;115200;-74
2023/04/26 06:45:46;;;;;;;7.60;2.90;;;;;;;13.85;57.14;100110.11;129462;1281;115095;-74
2023/04/26 06:48:48;;;;;;;7.00;2.10;;;;;;;13.74;56.48;100110.12;129480;1263;114720;-74
2023/04/26 06:51:51;;;;;;;17.00;3.30;;;;;;;13.78;56.46;100109.13;129422;1274;114755;-74
2023/04/26 06:54:53;;;;;;;9.50;2.20;;;;;;;13.95;55.96;100108.73;129533;1281;114835;-74
2023/04/26 06:57:56;;;;;;;6.90;2.10;;;;;;;14.16;55.78;100107.03;129388;1281;116692;-72
2023/04/26 07:00:58;;;;;;;8.60;1.90;;;;;;;14.37;55.37;100104.85;129487;1264;114709;-73
2023/04/26 07:04:02;;;;;;;8.90;2.70;;;;;;;14.55;54.91;100106.48;129448;1281;115267;-71
2023/04/26 07:07:04;;;;;;;6.30;2.10;;;;;;;14.64;54.57;100108.21;129312;1264;114816;-72
2023/04/26 07:10:08;;;;;;;8.60;2.90;;;;;;;14.63;53.71;100109.39;129464;1262;115407;-64
2023/04/26 07:13:10;;;;;;;6.80;1.90;;;;;;;14.69;52.92;100109.50;129523;1273;116267;-71
2023/04/26 07:16:12;;;;;;;6.80;2.00;;;;;;;14.89;53.33;100108.70;129676;1280;114866;-73
2023/04/26 07:19:15;;;;;;;8.70;2.40;;;;;;;15.01;52.56;100108.31;129730;1258;115334;-72
2023/04/26 07:22:17;;;;;;;11.50;2.60;;;;;;;15.14;52.12;100105.85;129381;1258;115121;-75
2023/04/26 07:25:20;;;;;;;7.40;2.00;;;;;;;15.15;51.59;100105.54;129489;1277;115120;-74
2023/04/26 07:28:22;;;;;;;7.40;2.10;;;;;;;15.08;50.80;100108.58;129492;1261;115305;-73
2023/04/26 07:31:24;;;;;;;10.80;2.30;;;;;;;15.37;50.72;100106.30;129545;1280;115162;-65
2023/04/26 07:34:26;;;;;;;9.40;1.90;;;;;;;15.73;50.35;100108.55;129464;1280;114936;-66
2023/04/26 07:37:30;;;;;;;13.10;2.30;;;;;;;16.15;50.07;100112.67;129764;1277;114831;-62
2023/04/26 07:40:32;;;;;;;11.50;1.90;;;;;;;16.36;48.87;100118.98;129670;1277;115173;-62
2023/04/26 07:43:35;;;;;;;7.80;2.10;;;;;;;16.18;48.21;100114.25;129697;1277;114698;-61
2023/04/26 07:46:37;;;;;;;8.60;2.50;;;;;;;15.89;47.92;100113.35;129600;1261;114717;-62
2023/04/26 07:49:40;;;;;;;7.70;2.00;;;;;;;15.73;47.69;100114.88;129632;1280;114736;-65
2023/04/26 07:52:42;;;;;;;4.60;1.80;;;;;;;15.40;47.25;100119.78;129452;1268;115101;-64
2023/04/26 07:55:45;;;;;;;10.50;2.10;;;;;;;14.94;47.12;100128.64;129309;1281;114865;-64
2023/04/26 07:58:47;;;;;;;8.00;1.90;;;;;;;14.96;47.69;100127.75;129509;1281;114762;-62
2023/04/26 08:01:50;;;;;;;9.90;1.80;;;;;;;15.43;47.82;100126.92;129572;1263;115207;-62
2023/04/26 08:04:54;;;;;;;9.10;2.20;;;;;;;15.91;47.08;100121.48;129479;1263;114736;-62
2023/04/26 08:07:56;;;;;;;9.50;1.90;;;;;;;16.20;46.46;100123.98;129485;1258;114811;-62
2023/04/26 08:10:58;;;;;;;5.80;1.50;;;;;;;16.08;45.87;100127.42;129458;1261;114744;-61
2023/04/26 08:14:01;;;;;;;8.10;1.40;;;;;;;15.81;45.38;100126.92;129565;1258;114746;-62
2023/04/26 08:17:04;;;;;;;6.70;1.40;;;;;;;15.85;45.39;100122.08;129697;1281;114814;-64
2023/04/26 08:20:08;;;;;;;7.00;2.00;;;;;;;16.05;45.17;100119.55;129353;1264;115099;-63
2023/04/26 08:23:11;;;;;;;8.00;1.80;;;;;;;16.16;44.66;100123.80;129319;1261;115463;-63
2023/04/26 08:26:13;;;;;;;12.00;1.90;;;;;;;15.92;44.35;100126.06;129487;1280;114743;-62
2023/04/26 08:29:17;;;;;;;7.90;1.70;;;;;;;15.67;44.70;100134.02;129408;1261;114724;-63
2023/04/26 08:32:20;;;;;;;5.90;1.20;;;;;;;15.86;44.71;100131.40;129382;1261;114794;-61
2023/04/26 08:35:22;;;;;;;5.10;1.40;;;;;;;16.18;44.58;100134.98;129465;1280;115417;-63
2023/04/26 08:38:25;;;;;;;10.60;2.10;;;;;;;16.51;44.18;100127.05;129455;1280;114794;-62
2023/04/26 08:41:29;;;;;;;6.70;2.40;;;;;;;16.42;43.31;100132.27;129586;1261;114801;-66
2023/04/26 08:44:34;;;;;;;4.50;1.50;;;;;;;16.16;43.26;100134.36;129394;1261;114753;-63
2023/04/26 08:47:46;;;;;;;5.70;1.70;;;;;;;16.11;43.20;100135.86;129577;1261;114716;-64
2023/04/26 08:50:48;;;;;;;7.10;1.70;;;;;;;16.12;42.52;100135.95;129205;1280;127443;-62
2023/04/26 08:53:51;;;;;;;9.10;1.90;;;;;;;16.03;42.41;100136.83;129435;1263;114794;-63
2023/04/26 08:56:55;;;;;;;5.60;1.30;;;;;;;16.05;42.90;100137.73;129518;1261;115284;-63
2023/04/26 08:59:57;;;;;;;4.00;1.60;;;;;;;16.05;42.39;100140.21;129495;1261;114759;-66
2023/04/26 09:03:00;;;;;;;9.30;1.90;;;;;;;16.13;42.46;100137.47;129678;1280;114702;-62
2023/04/26 09:06:03;;;;;;;5.20;1.60;;;;;;;16.17;42.17;100135.59;129619;1273;114717;-62
2023/04/26 09:09:07;;;;;;;6.70;1.80;;;;;;;15.96;41.93;100137.66;129115;1280;128314;-63
2023/04/26 09:12:10;;;;;;;7.00;1.50;;;;;;;15.61;41.77;100142.39;129505;1261;114715;-63
2023/04/26 09:15:14;;;;;;;3.90;1.10;;;;;;;15.63;42.40;100145.08;129625;1261;114788;-62
2023/04/26 09:18:21;;;;;;;3.20;1.20;;;;;;;15.77;41.76;100143.23;129570;1280;114748;-62
2023/04/26 09:21:24;;;;;;;4.70;1.30;;;;;;;15.52;40.93;100146.27;129502;1280;114763;-61
2023/04/26 09:24:26;;;;;;;4.90;1.50;;;;;;;15.15;41.23;100153.08;129564;1261;114785;-69
2023/04/26 09:27:37;;;;;;;5.80;1.50;;;;;;;14.87;41.18;100151.39;129400;1276;114767;-66
2023/04/26 09:30:39;;;;;;;5.30;1.70;;;;;;;14.44;41.08;100145.48;129574;1261;114666;-70
2023/04/26 09:33:58;;;;;;;6.80;2.00;;;;;;;14.24;41.62;100150.14;129583;1280;114723;-64
2023/04/26 09:37:00;;;;;;;10.40;2.40;;;;;;;14.24;42.07;100146.86;129583;1267;114906;-64
2023/04/26 09:40:16;;;;;;;4.70;1.40;;;;;;;14.49;42.58;100143.58;129676;1261;114739;-64
2023/04/26 09:43:20;;;;;;;2.50;1.70;;;;;;;14.79;41.67;100147.50;129559;1280;115255;-62
2023/04/26 09:46:23;;;;;;;7.50;1.40;;;;;;;14.68;41.08;100147.35;129290;1258;114801;-67
2023/04/26 09:49:30;;;;;;;7.80;2.00;;;;;;;14.45;41.22;100147.11;129478;1259;115273;-62
2023/04/26 09:52:43;;;;;;;6.60;1.30;;;;;;;14.21;41.19;100148.84;129300;1275;114804;-63
2023/04/26 09:55:46;;;;;;;5.40;1.90;;;;;;;14.05;41.26;100145.26;129238;1281;128366;-65
2023/04/26 09:59:06;;;;;;;2.90;1.30;;;;;;;13.90;41.07;100143.91;129421;1264;114787;-65
2023/04/26 10:02:28;;;;;;;9.30;1.50;;;;;;;13.74;41.04;100147.46;129552;1264;115098;-60
2023/04/26 10:05:32;;;;;;;10.70;1.70;;;;;;;13.69;41.33;100139.17;129532;1263;114725;-61
2023/04/26 10:08:35;;;;;;;6.60;1.70;;;;;;;13.73;41.76;100138.03;129294;1264;114767;-62
2023/04/26 10:11:37;;;;;;;7.00;1.80;;;;;;;13.85;41.45;100135.96;129446;1282;114735;-63
2023/04/26 10:14:41;;;;;;;6.20;1.50;;;;;;;13.86;41.11;100137.90;129622;1281;114808;-66
2023/04/26 10:17:43;;;;;;;7.30;1.70;;;;;;;13.73;40.93;100146.45;129626;1281;115395;-63
2023/04/26 10:20:50;;;;;;;4.10;1.30;;;;;;;13.48;40.68;100148.40;129570;1258;115108;-61
2023/04/26 10:23:53;;;;;;;7.30;1.50;;;;;;;13.25;41.24;100156.46;129331;1258;114896;-61
2023/04/26 10:26:58;;;;;;;4.50;1.40;;;;;;;13.16;41.26;100159.04;129475;1264;114717;-60
2023/04/26 10:30:06;;;;;;;8.40;2.40;;;;;;;12.95;41.42;100155.81;129209;1282;127521;-63
2023/04/26 10:33:15;;;;;;;4.70;1.80;;;;;;;12.78;41.68;100153.84;129401;1279;114916;-62
2023/04/26 10:36:19;;;;;;;3.90;1.50;;;;;;;12.78;42.35;100153.46;129456;1262;114762;-61
2023/04/26 10:39:23;;;;;;;4.30;2.10;;;;;;;12.80;42.05;100154.83;129419;1272;114830;-62
2023/04/26 10:42:29;;;;;;;5.40;2.00;;;;;;;12.79;42.02;100160.59;129438;1282;114723;-60
2023/04/26 10:45:31;;;;;;;5.10;1.90;;;;;;;12.78;42.10;100164.35;129476;1263;129115;-61
2023/04/26 10:48:33;;;;;;;5.70;2.00;;;;;;;12.80;42.09;100163.02;129366;1264;115169;-62
2023/04/26 10:51:35;;;;;;;5.20;1.60;;;;;;;12.84;42.52;100155.94;129495;1258;114736;-63
2023/04/26 10:54:55;;;;;;;8.00;1.40;;;;;;;12.97;42.30;100153.55;129508;1258;114920;-64
2023/04/26 10:57:57;;;;;;;6.50;1.80;;;;;;;13.09;42.58;100150.13;129549;1276;115265;-62
2023/04/26 11:01:17;;;;;;;6.70;1.40;;;;;;;13.24;42.46;100151.88;129393;1261;114835;-63
2023/04/26 11:04:20;;;;;;;9.20;1.90;;;;;;;13.35;42.03;100154.26;129351;1280;128309;-64
2023/04/26 11:07:38;;;;;;;5.30;1.30;;;;;;;13.40;41.69;100155.73;129477;1264;114805;-61
2023/04/26 11:10:41;;;;;;;6.60;1.80;;;;;;;13.43;41.53;100155.50;129658;1261;114793;-64
2023/04/26 11:13:44;;;;;;;6.40;2.00;;;;;;;13.37;41.51;100153.41;129535;1261;116416;-63
2023/04/26 11:16:46;;;;;;;8.70;1.90;;;;;;;13.35;41.58;100154.59;129572;1281;114727;-66
2023/04/26 11:19:48;;;;;;;8.30;2.40;;;;;;;13.37;41.31;100154.26;129505;1277;114708;-62
2023/04/26 11:22:52;;;;;;;4.60;1.80;;;;;;;13.40;41.55;100150.89;129548;1261;114721;-65
2023/04/26 11:26:07;;;;;;;4.90;1.60;;;;;;;13.54;41.60;100152.71;129499;1280;114763;-63
2023/04/26 11:29:17;;;;;;;5.90;2.30;;;;;;;13.79;41.47;100154.86;129482;1264;114711;-65
2023/04/26 11:32:20;;;;;;;5.20;1.70;;;;;;;13.97;41.05;100153.33;129333;1263;115184;-61
2023/04/26 11:35:23;;;;;;;5.90;1.60;;;;;;;14.13;40.68;100148.48;129527;1264;114740;-65
2023/04/26 11:38:27;;;;;;;6.20;1.80;;;;;;;14.20;40.18;100146.27;129497;1272;114812;-62
2023/04/26 11:41:29;;;;;;;3.50;1.70;;;;;;;14.18;40.26;100153.55;129561;1277;114673;-64
2023/04/26 11:44:32;;;;;;;8.70;1.30;;;;;;;14.14;39.88;100154.36;129493;1280;115182;-64
2023/04/26 11:47:35;;;;;;;5.80;1.50;;;;;;;14.01;39.57;100158.27;129671;1261;115156;-63
2023/04/26 11:50:38;;;;;;;5.00;1.20;;;;;;;13.90;39.30;100152.00;129471;1280;114807;-62
2023/04/26 11:53:41;;;;;;;4.50;1.10;;;;;;;13.87;39.90;100153.84;129466;1280;115343;-62
2023/04/26 11:56:44;;;;;;;5.10;1.30;;;;;;;13.90;39.97;100151.65;129519;1278;114714;-62
2023/04/26 11:59:46;;;;;;;5.50;1.20;;;;;;;13.93;39.50;100144.98;129660;1281;114757;-61
2023/04/26 12:02:50;;;;;;;2.50;1.30;;;;;;;14.03;39.43;100136.80;129268;1266;114816;-62
2023/04/26 12:05:55;;;;;;;3.40;1.30;;;;;;;14.12;39.29;100139.91;129303;1265;115086;-62
2023/04/26 12:08:57;;;;;;;5.90;1.80;;;;;;;14.16;39.41;100157.27;129495;1281;115159;-62
2023/04/26 12:12:01;;;;;;;8.90;2.00;;;;;;;14.01;38.78;100165.25;129481;1280;115210;-62
2023/04/26 12:15:09;;;;;;;8.70;1.70;;;;;;;13.76;38.97;100166.73;129673;1263;115307;-63
2023/04/26 12:18:12;;;;;;;4.80;1.50;;;;;;;13.43;38.94;100165.77;129839;1280;114730;-63
2023/04/26 12:21:15;;;;;;;5.20;1.30;;;;;;;13.11;39.33;100172.73;129692;1261;114818;-61
2023/04/26 12:24:41;;;;;;;3.80;1.40;;;;;;;12.89;39.13;100166.06;129400;1262;114808;-62
2023/04/26 12:27:44;;;;;;;2.90;1.50;;;;;;;12.63;39.28;100167.27;129366;1277;128776;-61
2023/04/26 12:30:47;;;;;;;7.30;2.20;;;;;;;12.51;39.80;100165.48;129440;1280;114788;-62
2023/04/26 12:33:49;;;;;;;1.60;1.40;;;;;;;12.53;40.52;100165.73;129501;1281;114724;-64
2023/04/26 12:36:51;;;;;;;7.80;2.40;;;;;;;12.53;40.30;100168.38;129497;1281;114717;-62
2023/04/26 12:39:54;;;;;;;5.90;1.60;;;;;;;12.48;39.80;100171.53;129365;1264;114926;-62
2023/04/26 12:42:56;;;;;;;3.70;1.80;;;;;;;12.36;39.60;100171.04;129489;1271;114785;-62
2023/04/26 12:45:59;;;;;;;6.60;2.10;;;;;;;12.32;39.92;100174.30;129483;1279;114767;-62
2023/04/26 12:49:02;;;;;;;5.80;1.70;;;;;;;12.36;40.65;100176.38;129491;1261;114766;-65
2023/04/26 12:52:05;;;;;;;7.20;2.80;;;;;;;12.40;40.43;100177.39;129552;1281;115214;-63
2023/04/26 12:55:09;;;;;;;6.00;1.80;;;;;;;12.40;40.25;100181.55;129327;1265;114853;-66
2023/04/26 12:58:11;;;;;;;5.10;2.00;;;;;;;12.33;40.14;100182.09;129351;1267;115184;-61
2023/04/26 13:01:14;;;;;;;4.60;1.60;;;;;;;12.24;40.18;100180.64;129483;1281;114761;-61
2023/04/26 13:04:17;;;;;;;2.90;1.20;;;;;;;12.19;40.54;100184.71;129462;1280;115096;-62
2023/04/26 13:07:20;;;;;;;5.90;1.30;;;;;;;12.16;40.72;100181.31;129533;1263;114739;-62
2023/04/26 13:10:22;;;;;;;4.60;1.40;;;;;;;12.24;41.17;100179.24;129664;1271;114793;-62
2023/04/26 13:13:25;;;;;;;9.00;1.50;;;;;;;12.35;41.43;100174.46;129477;1262;114652;-63
2023/04/26 13:16:27;;;;;;;4.60;1.60;;;;;;;12.45;41.67;100167.61;129583;1261;114704;-65
2023/04/26 13:19:29;;;;;;;6.20;1.60;;;;;;;12.47;41.23;100173.06;129439;1277;114774;-63
2023/04/26 13:22:32;;;;;;;6.50;2.00;;;;;;;12.43;41.17;100172.92;129465;1280;314715;-62
2023/04/26 13:25:35;;;;;;;4.30;1.80;;;;;;;12.39;41.55;100172.84;129849;1265;128844;-65
2023/04/26 13:28:37;;;;;;;5.70;2.20;;;;;;;12.29;41.11;100182.16;129632;1261;114714;-63
2023/04/26 13:31:39;;;;;;;9.50;3.00;;;;;;;12.14;40.57;100181.77;129500;1280;114784;-63
2023/04/26 13:34:44;;;;;;;15.30;5.70;;;;;;;11.88;41.00;100187.89;129554;1265;114788;-66
2023/04/26 13:37:47;;;;;;;10.00;5.00;;;;;;;11.57;41.27;100188.86;129596;1264;114892;-63
2023/04/26 13:40:49;;;;;;;5.90;2.30;;;;;;;11.37;41.50;100191.80;129944;1271;114774;-63
2023/04/26 13:43:51;;;;;;;4.80;1.80;;;;;;;11.28;41.84;100196.02;129888;1280;115322;-64
2023/04/26 13:46:55;;;;;;;7.70;2.70;;;;;;;11.24;41.58;100191.56;129887;1257;114734;-67
2023/04/26 13:49:57;;;;;;;8.00;1.90;;;;;;;11.20;41.90;100196.07;129619;1280;115264;-63
2023/04/26 13:52:59;;;;;;;4.00;1.80;;;;;;;11.17;41.88;100205.17;129597;1261;114774;-66
2023/04/26 13:56:02;;;;;;;4.60;2.50;;;;;;;11.09;41.61;100205.95;129677;1281;114948;-62